This is the latest recevied weather packets stored in our database for station/object SR8WXL-13. If no packets are shown the sender has not sent any weather packets the latest 10 day(s).
| Time | Temp. | Humidity | Pressure | Rain* | Wind** | Luminosity | Snow |
|---|---|---|---|---|---|---|---|
| 1777468904 | 7.22° C | 41% | 1037.9 hPa | - | - | - | - |
| 1777468150 | 7.78° C | 40% | 1037.8 hPa | - | - | - | - |
| 1777467379 | 7.78° C | 43% | 1038 hPa | - | - | - | - |
| 1777466649 | 7.78° C | 46% | 1038.1 hPa | - | - | - | - |
| 1777465920 | 7.22° C | 48% | 1038.3 hPa | - | - | - | - |
| 1777465101 | 7.22° C | 46% | 1038.1 hPa | - | - | - | - |
| 1777464359 | 7.22° C | 47% | 1038 hPa | - | - | - | - |
| 1777463634 | 7.22° C | 51% | 1038.1 hPa | - | - | - | - |
| 1777462881 | 7.78° C | 48% | 1038.1 hPa | - | - | - | - |
| 1777462060 | 6.11° C | 50% | 1038 hPa | - | - | - | - |
| 1777461184 | 7.22° C | 50% | 1038.2 hPa | - | - | - | - |
| 1777460314 | 7.22° C | 47% | 1037.9 hPa | - | - | - | - |
| 1777459414 | 7.22° C | 49% | 1038 hPa | - | - | - | - |
| 1777458599 | 6.11° C | 53% | 1038.2 hPa | - | - | - | - |
| 1777457770 | 7.22° C | 54% | 1037.7 hPa | - | - | - | - |
| 1777457035 | 7.22° C | 55% | 1038.2 hPa | - | - | - | - |
| 1777456240 | 7.22° C | 56% | 1038 hPa | - | - | - | - |
| 1777455520 | 6.11° C | 59% | 1038.1 hPa | - | - | - | - |
| 1777454782 | 6.11° C | 59% | 1038 hPa | - | - | - | - |
| 1777453939 | 6.11° C | 59% | 1038 hPa | - | - | - | - |
| 1777453049 | 5° C | 61% | 1038.1 hPa | - | - | - | - |
| 1777452285 | 7.22° C | 60% | 1038 hPa | - | - | - | - |
| 1777451400 | 5° C | 61% | 1038.2 hPa | - | - | - | - |
| 1777450639 | 6.11° C | 59% | 1037.8 hPa | - | - | - | - |
| 1777449900 | 6.11° C | 59% | 1037.8 hPa | - | - | - | - |
* Rain since midnight (hover to see other rain measurements)
** Current wind speed in m/s (hover to see current wind gust speed)